Time;durP1;ratioP1;P1;durP2;ratioP2;P2;SDS_P1;SDS_P2;PMS_P1;PMS_P2;Temp;Humidity;BMP_temperature;BMP_pressure;BME280_temperature;BME280_humidity;BME280_pressure;Samples;Min_cycle;Max_cycle;Signal;HPM_P1;HPM_P2
2023/05/06 00:01:51;;;;;;;8.05;6.45;;;;;;;;;;6182569;23;20344;-78
2023/05/06 00:04:17;;;;;;;9.05;7.30;;;;;;;;;;6182621;23;20024;-77
2023/05/06 00:06:43;;;;;;;9.25;6.57;;;;;;;;;;6209385;23;20009;-76
2023/05/06 00:09:09;;;;;;;9.18;6.50;;;;;;;;;;6183417;23;20079;-77
2023/05/06 00:11:34;;;;;;;9.20;6.53;;;;;;;;;;6185018;23;20327;-77
2023/05/06 00:14:00;;;;;;;8.27;6.70;;;;;;;;;;6183549;23;20008;-78
2023/05/06 00:16:25;;;;;;;9.90;7.28;;;;;;;;;;6183783;23;20335;-76
2023/05/06 00:18:50;;;;;;;10.32;6.80;;;;;;;;;;6183469;23;20399;-77
2023/05/06 00:21:16;;;;;;;8.15;6.32;;;;;;;;;;6182688;23;20016;-77
2023/05/06 00:23:41;;;;;;;9.38;7.32;;;;;;;;;;6186021;23;20079;-78
2023/05/06 00:26:07;;;;;;;9.55;6.93;;;;;;;;;;6186017;23;20005;-78
2023/05/06 00:28:32;;;;;;;8.82;6.30;;;;;;;;;;6184436;23;20005;-77
2023/05/06 00:30:57;;;;;;;8.82;6.13;;;;;;;;;;6185158;23;20005;-75
2023/05/06 00:33:23;;;;;;;8.88;6.25;;;;;;;;;;6183522;23;20128;-77
2023/05/06 00:35:48;;;;;;;7.82;6.30;;;;;;;;;;6180673;23;20028;-77
2023/05/06 00:38:16;;;;;;;8.32;6.38;;;;;;;;;;6181746;23;20000;-77
2023/05/06 00:40:42;;;;;;;9.65;6.88;;;;;;;;;;6183175;23;20411;-77
2023/05/06 00:43:07;;;;;;;7.90;6.45;;;;;;;;;;6182825;23;20080;-77
2023/05/06 00:45:33;;;;;;;10.95;6.47;;;;;;;;;;6183554;23;20032;-77
2023/05/06 00:47:59;;;;;;;9.23;7.15;;;;;;;;;;6179708;23;20009;-77
2023/05/06 00:50:27;;;;;;;9.20;6.85;;;;;;;;;;6183399;23;20004;-77
2023/05/06 00:52:53;;;;;;;9.15;6.50;;;;;;;;;;6182350;23;20004;-78
2023/05/06 00:55:20;;;;;;;9.38;6.28;;;;;;;;;;6180593;23;20013;-77
2023/05/06 00:57:48;;;;;;;7.55;6.00;;;;;;;;;;6180018;23;20071;-77
2023/05/06 01:00:14;;;;;;;8.38;6.57;;;;;;;;;;6182723;23;20063;-77
2023/05/06 01:02:40;;;;;;;10.02;6.57;;;;;;;;;;6182405;23;20015;-77
2023/05/06 01:05:06;;;;;;;8.48;6.45;;;;;;;;;;6183376;23;20084;-78
2023/05/06 01:07:43;;;;;;;7.95;6.13;;;;;;;;;;6181141;23;20392;-78
2023/05/06 01:10:21;;;;;;;10.20;7.20;;;;;;;;;;6183283;23;20084;-78
2023/05/06 01:12:52;;;;;;;8.88;6.75;;;;;;;;;;6182976;23;20009;-78
2023/05/06 01:15:29;;;;;;;9.25;6.78;;;;;;;;;;6184822;23;20028;-77
2023/05/06 01:17:59;;;;;;;8.95;7.35;;;;;;;;;;6184483;23;20477;-78
2023/05/06 01:20:26;;;;;;;8.88;7.43;;;;;;;;;;6184731;23;20097;-78
2023/05/06 01:22:52;;;;;;;10.30;7.90;;;;;;;;;;6182544;23;20055;-77
2023/05/06 01:25:20;;;;;;;9.05;7.50;;;;;;;;;;6184947;23;20005;-77
2023/05/06 01:27:45;;;;;;;9.90;7.38;;;;;;;;;;6181240;23;20001;-77
2023/05/06 01:30:12;;;;;;;10.18;7.32;;;;;;;;;;6184054;23;20007;-78
2023/05/06 01:32:56;;;;;;;10.10;7.55;;;;;;;;;;6184958;23;20439;-77
2023/05/06 01:35:39;;;;;;;9.13;7.40;;;;;;;;;;6184009;23;20343;-77
2023/05/06 01:38:26;;;;;;;9.10;7.22;;;;;;;;;;6183721;23;20068;-78
2023/05/06 01:40:54;;;;;;;8.93;6.65;;;;;;;;;;6182114;23;20009;-78
2023/05/06 01:43:20;;;;;;;11.57;8.10;;;;;;;;;;6180707;23;20066;-78
2023/05/06 01:45:51;;;;;;;11.85;8.07;;;;;;;;;;6179753;23;20001;-78
2023/05/06 01:48:20;;;;;;;10.73;7.32;;;;;;;;;;6182035;23;20007;-78
2023/05/06 01:50:46;;;;;;;10.73;7.18;;;;;;;;;;6181592;23;20005;-78
2023/05/06 01:53:11;;;;;;;11.68;7.22;;;;;;;;;;6183609;23;20431;-78
2023/05/06 01:55:37;;;;;;;11.57;7.07;;;;;;;;;;6181806;23;20005;-77
2023/05/06 01:58:02;;;;;;;9.98;7.85;;;;;;;;;;6180448;23;20093;-76
2023/05/06 02:00:28;;;;;;;9.38;7.18;;;;;;;;;;6182549;23;20036;-78
2023/05/06 02:02:53;;;;;;;9.40;7.20;;;;;;;;;;6183306;23;20052;-78
2023/05/06 02:05:19;;;;;;;10.80;7.97;;;;;;;;;;6182991;23;20005;-76
2023/05/06 02:07:44;;;;;;;10.75;7.85;;;;;;;;;;6182452;23;20003;-78
2023/05/06 02:10:10;;;;;;;10.27;7.38;;;;;;;;;;6181892;23;20083;-77
2023/05/06 02:12:35;;;;;;;11.45;7.50;;;;;;;;;;6180876;23;20097;-77
2023/05/06 02:15:01;;;;;;;9.25;7.18;;;;;;;;;;6180934;23;20095;-78
2023/05/06 02:17:26;;;;;;;12.98;7.72;;;;;;;;;;6180873;23;20008;-76
2023/05/06 02:19:51;;;;;;;9.85;7.00;;;;;;;;;;6183290;23;20079;-78
2023/05/06 02:22:17;;;;;;;10.23;7.68;;;;;;;;;;6179684;23;20426;-76
2023/05/06 02:24:42;;;;;;;10.00;7.20;;;;;;;;;;6181751;23;20008;-78
2023/05/06 02:27:07;;;;;;;9.65;7.45;;;;;;;;;;6182479;23;20087;-77
2023/05/06 02:29:33;;;;;;;10.63;7.40;;;;;;;;;;6181785;23;20348;-78
2023/05/06 02:31:58;;;;;;;9.45;6.95;;;;;;;;;;6180065;23;20327;-77
2023/05/06 02:34:24;;;;;;;9.50;7.32;;;;;;;;;;6183392;23;20312;-78
2023/05/06 02:36:49;;;;;;;10.95;7.32;;;;;;;;;;6178861;23;20013;-78
2023/05/06 02:39:14;;;;;;;9.02;7.22;;;;;;;;;;6181407;23;20093;-77
2023/05/06 02:41:40;;;;;;;10.25;7.68;;;;;;;;;;6180535;23;20000;-78
2023/05/06 02:44:05;;;;;;;10.68;7.22;;;;;;;;;;6181101;23;20009;-78
2023/05/06 02:46:31;;;;;;;9.98;7.70;;;;;;;;;;6181267;23;20004;-77
2023/05/06 02:48:56;;;;;;;9.95;6.85;;;;;;;;;;6182898;23;20013;-77
2023/05/06 02:51:22;;;;;;;9.45;7.43;;;;;;;;;;6182234;23;20009;-77
2023/05/06 02:53:47;;;;;;;9.38;7.13;;;;;;;;;;6180603;23;20009;-78
2023/05/06 02:56:12;;;;;;;10.25;7.38;;;;;;;;;;6181158;23;20009;-77
2023/05/06 02:58:38;;;;;;;9.77;7.55;;;;;;;;;;6183686;23;20706;-78
2023/05/06 03:01:03;;;;;;;9.55;6.97;;;;;;;;;;6182207;23;20067;-78
2023/05/06 03:03:28;;;;;;;9.27;7.40;;;;;;;;;;6182991;23;20009;-78
2023/05/06 03:05:54;;;;;;;9.55;7.63;;;;;;;;;;6182159;23;20008;-77
2023/05/06 03:08:19;;;;;;;10.95;7.72;;;;;;;;;;6183509;23;20084;-78
2023/05/06 03:10:44;;;;;;;11.10;7.43;;;;;;;;;;6182309;23;20009;-78
2023/05/06 03:13:10;;;;;;;9.25;7.07;;;;;;;;;;6183246;23;20313;-78
2023/05/06 03:15:35;;;;;;;11.10;8.38;;;;;;;;;;6184182;23;20007;-78
2023/05/06 03:18:00;;;;;;;12.68;8.00;;;;;;;;;;6183177;23;20156;-78
2023/05/06 03:20:27;;;;;;;11.48;8.00;;;;;;;;;;6183037;23;20444;-77
2023/05/06 03:22:53;;;;;;;8.65;7.22;;;;;;;;;;6182565;23;20032;-78
2023/05/06 03:25:18;;;;;;;10.85;7.47;;;;;;;;;;6181636;23;20047;-78
2023/05/06 03:27:44;;;;;;;9.10;7.30;;;;;;;;;;6182136;23;20080;-77
2023/05/06 03:30:09;;;;;;;8.90;7.43;;;;;;;;;;6182351;23;20081;-76
2023/05/06 03:32:36;;;;;;;10.32;8.13;;;;;;;;;;6181094;23;20005;-78
2023/05/06 03:35:02;;;;;;;9.85;7.57;;;;;;;;;;6181579;23;20005;-78
2023/05/06 03:37:29;;;;;;;11.80;7.70;;;;;;;;;;6181277;23;20066;-76
2023/05/06 03:39:54;;;;;;;11.90;8.07;;;;;;;;;;6181785;23;20419;-78
2023/05/06 03:42:20;;;;;;;12.45;7.88;;;;;;;;;;6183420;23;20020;-78
2023/05/06 03:44:45;;;;;;;10.18;7.90;;;;;;;;;;6181339;23;20008;-77
2023/05/06 03:47:11;;;;;;;10.25;8.13;;;;;;;;;;6182906;23;20138;-78
2023/05/06 03:49:36;;;;;;;9.60;7.68;;;;;;;;;;6182119;23;20047;-77
2023/05/06 03:52:01;;;;;;;9.63;8.13;;;;;;;;;;6184131;23;20313;-78
2023/05/06 03:54:27;;;;;;;11.57;7.47;;;;;;;;;;6184902;23;20363;-78
2023/05/06 03:56:52;;;;;;;10.30;7.68;;;;;;;;;;6207813;23;20013;-77
2023/05/06 03:59:17;;;;;;;9.07;7.53;;;;;;;;;;6183711;23;20063;-78
2023/05/06 04:01:43;;;;;;;9.82;7.00;;;;;;;;;;6185239;23;20463;-77
2023/05/06 04:04:08;;;;;;;9.35;7.10;;;;;;;;;;6182961;23;20007;-77
2023/05/06 04:06:33;;;;;;;8.85;6.95;;;;;;;;;;6183876;23;20092;-77
2023/05/06 04:08:59;;;;;;;9.80;7.38;;;;;;;;;;6182553;23;20016;-78
2023/05/06 04:11:24;;;;;;;9.77;7.53;;;;;;;;;;6183744;23;20083;-78
2023/05/06 04:13:50;;;;;;;9.02;7.03;;;;;;;;;;6179475;23;20016;-77
2023/05/06 04:16:15;;;;;;;10.15;7.38;;;;;;;;;;6180824;23;20012;-78
2023/05/06 04:18:42;;;;;;;10.52;7.55;;;;;;;;;;6182541;23;20005;-78
2023/05/06 04:21:09;;;;;;;10.05;7.47;;;;;;;;;;6182185;23;20009;-77
2023/05/06 04:23:34;;;;;;;10.48;7.03;;;;;;;;;;6180858;23;20013;-77
2023/05/06 04:26:00;;;;;;;8.52;6.50;;;;;;;;;;6184649;23;20008;-78
2023/05/06 04:28:25;;;;;;;8.80;6.75;;;;;;;;;;6182263;23;20113;-77
2023/05/06 04:30:51;;;;;;;9.13;6.57;;;;;;;;;;6180227;23;20504;-77
2023/05/06 04:33:16;;;;;;;11.25;6.50;;;;;;;;;;6181436;23;20085;-77
2023/05/06 04:35:49;;;;;;;9.98;7.45;;;;;;;;;;6182815;23;20028;-78
2023/05/06 04:38:15;;;;;;;;;;;;;;;;;;6181367;23;20382;-78
2023/05/06 04:40:41;;;;;;;10.10;6.97;;;;;;;;;;6182054;23;19956;-77
2023/05/06 04:43:06;;;;;;;9.38;6.80;;;;;;;;;;6182048;23;20223;-77
2023/05/06 04:45:33;;;;;;;9.65;6.80;;;;;;;;;;6184233;23;20012;-77
2023/05/06 04:47:58;;;;;;;10.75;6.90;;;;;;;;;;6179861;23;20011;-77
2023/05/06 04:50:23;;;;;;;10.73;7.10;;;;;;;;;;6182445;23;20013;-77
2023/05/06 04:52:49;;;;;;;9.63;7.10;;;;;;;;;;6183132;23;20013;-77
2023/05/06 04:55:14;;;;;;;8.95;6.82;;;;;;;;;;6182103;23;20012;-76
2023/05/06 04:57:39;;;;;;;8.32;6.78;;;;;;;;;;6183956;23;20005;-78
2023/05/06 05:00:06;;;;;;;11.98;7.22;;;;;;;;;;6183475;23;20012;-78
2023/05/06 05:02:31;;;;;;;9.65;6.60;;;;;;;;;;6206006;23;20071;-78
2023/05/06 05:04:56;;;;;;;8.07;6.10;;;;;;;;;;6205329;23;20009;-77
2023/05/06 05:07:22;;;;;;;9.07;6.82;;;;;;;;;;6178926;23;20004;-78
2023/05/06 05:09:47;;;;;;;8.63;6.70;;;;;;;;;;6182186;23;20008;-78
2023/05/06 05:12:12;;;;;;;7.70;6.05;;;;;;;;;;6181568;23;20088;-78
2023/05/06 05:14:37;;;;;;;8.38;6.15;;;;;;;;;;6182392;23;20005;-78
2023/05/06 05:17:03;;;;;;;8.15;6.20;;;;;;;;;;6182327;23;20005;-78
2023/05/06 05:19:28;;;;;;;9.45;6.80;;;;;;;;;;6182820;23;20111;-78
2023/05/06 05:21:54;;;;;;;9.25;6.82;;;;;;;;;;6180048;23;20071;-77
2023/05/06 05:24:19;;;;;;;8.88;6.78;;;;;;;;;;6184437;23;20005;-78
2023/05/06 05:26:44;;;;;;;8.43;5.88;;;;;;;;;;6182056;23;20001;-77
2023/05/06 05:29:10;;;;;;;9.52;6.63;;;;;;;;;;6183415;23;20007;-76
2023/05/06 05:31:35;;;;;;;8.68;6.20;;;;;;;;;;6182192;23;20011;-78
2023/05/06 05:34:00;;;;;;;10.48;6.60;;;;;;;;;;6183491;23;20076;-78
2023/05/06 05:36:26;;;;;;;8.20;5.78;;;;;;;;;;6181462;23;20001;-78
2023/05/06 05:38:51;;;;;;;9.07;6.25;;;;;;;;;;6184264;23;20459;-78
2023/05/06 05:41:17;;;;;;;8.82;6.05;;;;;;;;;;6183189;23;20009;-76
2023/05/06 05:43:42;;;;;;;8.25;5.63;;;;;;;;;;6181972;23;20008;-78
2023/05/06 05:46:07;;;;;;;6.78;5.38;;;;;;;;;;6180198;23;20009;-77
2023/05/06 05:48:33;;;;;;;8.93;5.97;;;;;;;;;;6184227;23;20088;-78
2023/05/06 05:51:01;;;;;;;8.90;5.90;;;;;;;;;;6181596;23;20009;-78
2023/05/06 05:53:27;;;;;;;9.45;6.05;;;;;;;;;;6180340;23;20035;-76
2023/05/06 05:55:52;;;;;;;7.47;5.68;;;;;;;;;;6184077;23;20005;-77
2023/05/06 05:58:18;;;;;;;7.82;5.70;;;;;;;;;;6181518;23;20024;-77
2023/05/06 06:00:43;;;;;;;8.35;5.75;;;;;;;;;;6182869;23;20013;-76
2023/05/06 06:03:08;;;;;;;8.27;6.00;;;;;;;;;;6181001;23;20000;-78
2023/05/06 06:05:34;;;;;;;8.80;5.78;;;;;;;;;;6157200;23;20044;-77
2023/05/06 06:07:59;;;;;;;10.90;6.00;;;;;;;;;;6182507;23;20003;-78
2023/05/06 06:10:25;;;;;;;9.07;5.72;;;;;;;;;;6181865;23;20039;-78
2023/05/06 06:12:50;;;;;;;9.73;7.03;;;;;;;;;;6180614;23;20032;-77
2023/05/06 06:15:15;;;;;;;9.15;6.72;;;;;;;;;;6182124;23;20047;-78
2023/05/06 06:17:41;;;;;;;8.48;6.10;;;;;;;;;;6181930;23;20005;-77
2023/05/06 06:20:07;;;;;;;9.10;6.60;;;;;;;;;;6182213;23;20027;-78
2023/05/06 06:22:33;;;;;;;8.05;5.93;;;;;;;;;;6184290;23;20008;-78
2023/05/06 06:24:58;;;;;;;8.63;6.30;;;;;;;;;;6181420;23;20005;-76
2023/05/06 06:27:23;;;;;;;9.32;6.80;;;;;;;;;;6183318;23;20008;-78
2023/05/06 06:29:49;;;;;;;8.63;6.72;;;;;;;;;;6181339;23;20011;-78
2023/05/06 06:32:14;;;;;;;10.27;6.80;;;;;;;;;;6181110;23;20047;-78
2023/05/06 06:34:40;;;;;;;7.70;6.00;;;;;;;;;;6183849;23;20004;-78
2023/05/06 06:37:05;;;;;;;9.77;6.07;;;;;;;;;;6182160;23;20313;-78
2023/05/06 06:39:31;;;;;;;7.38;5.47;;;;;;;;;;6182045;23;20075;-77
2023/05/06 06:41:57;;;;;;;7.72;4.93;;;;;;;;;;6183538;23;20009;-78
2023/05/06 06:44:22;;;;;;;8.20;5.25;;;;;;;;;;6181121;23;20321;-78
2023/05/06 06:46:48;;;;;;;7.72;5.18;;;;;;;;;;6183813;23;20076;-78
2023/05/06 06:49:13;;;;;;;8.52;5.80;;;;;;;;;;6180811;23;20463;-78
2023/05/06 06:51:38;;;;;;;8.32;5.47;;;;;;;;;;6183234;23;20005;-77
2023/05/06 06:54:04;;;;;;;9.93;6.75;;;;;;;;;;6180986;23;20020;-77
2023/05/06 06:56:30;;;;;;;11.45;7.03;;;;;;;;;;6181692;23;20073;-77
2023/05/06 06:58:55;;;;;;;10.88;7.45;;;;;;;;;;6180843;23;20016;-78
2023/05/06 07:01:21;;;;;;;11.98;7.70;;;;;;;;;;6182277;23;20004;-77
2023/05/06 07:03:46;;;;;;;12.23;8.00;;;;;;;;;;6181765;23;20005;-78
2023/05/06 07:06:11;;;;;;;11.50;8.23;;;;;;;;;;6182195;23;20040;-78
2023/05/06 07:08:37;;;;;;;11.25;6.90;;;;;;;;;;6182082;23;20320;-78
2023/05/06 07:11:02;;;;;;;11.27;8.10;;;;;;;;;;6183621;23;20008;-77
2023/05/06 07:13:27;;;;;;;11.13;7.95;;;;;;;;;;6183641;23;19997;-78
2023/05/06 07:15:53;;;;;;;13.25;7.93;;;;;;;;;;6184297;23;20001;-78
2023/05/06 07:18:18;;;;;;;13.35;8.55;;;;;;;;;;6182325;23;20013;-78
2023/05/06 07:20:44;;;;;;;13.35;8.55;;;;;;;;;;6183784;23;20019;-78
2023/05/06 07:23:09;;;;;;;15.55;8.93;;;;;;;;;;6183309;23;20112;-78
2023/05/06 07:25:35;;;;;;;13.50;8.23;;;;;;;;;;6182906;23;20005;-78
2023/05/06 07:28:00;;;;;;;13.88;8.43;;;;;;;;;;6182352;23;20004;-78
2023/05/06 07:30:26;;;;;;;13.98;8.85;;;;;;;;;;6182131;23;20020;-77
2023/05/06 07:32:52;;;;;;;15.38;9.15;;;;;;;;;;6184297;23;20009;-77
2023/05/06 07:35:17;;;;;;;13.35;8.52;;;;;;;;;;6181347;23;20309;-78
2023/05/06 07:37:45;;;;;;;14.27;9.73;;;;;;;;;;6182393;23;20053;-77
2023/05/06 07:40:10;;;;;;;14.82;8.88;;;;;;;;;;6182881;23;20004;-78
2023/05/06 07:42:36;;;;;;;15.57;9.52;;;;;;;;;;6182285;23;20037;-78
2023/05/06 07:45:01;;;;;;;13.43;9.68;;;;;;;;;;6182043;23;20103;-77
2023/05/06 07:47:31;;;;;;;16.67;9.18;;;;;;;;;;6184058;23;20420;-77
2023/05/06 07:49:57;;;;;;;16.95;10.30;;;;;;;;;;6183819;23;20009;-78
2023/05/06 07:52:23;;;;;;;17.73;10.65;;;;;;;;;;6183785;23;20324;-78
2023/05/06 07:54:48;;;;;;;17.02;10.68;;;;;;;;;;6184566;23;20084;-78
2023/05/06 07:57:14;;;;;;;20.77;10.45;;;;;;;;;;6182609;23;20502;-78
2023/05/06 07:59:51;;;;;;;17.70;10.63;;;;;;;;;;6184149;23;20001;-77
2023/05/06 08:02:17;;;;;;;16.50;9.38;;;;;;;;;;6182612;23;20005;-78
2023/05/06 08:04:43;;;;;;;16.38;9.93;;;;;;;;;;6184298;23;20005;-78
2023/05/06 08:07:09;;;;;;;16.90;10.02;;;;;;;;;;6184158;23;20004;-78
2023/05/06 08:09:35;;;;;;;15.77;10.77;;;;;;;;;;6184082;23;20001;-78
2023/05/06 08:12:00;;;;;;;19.45;10.90;;;;;;;;;;6183639;23;20036;-78
2023/05/06 08:14:26;;;;;;;16.05;10.23;;;;;;;;;;6182579;23;20016;-77
2023/05/06 08:16:51;;;;;;;17.23;11.05;;;;;;;;;;6156457;23;20005;-78
2023/05/06 08:19:17;;;;;;;20.23;10.82;;;;;;;;;;6181410;23;20008;-77
2023/05/06 08:21:42;;;;;;;17.58;10.98;;;;;;;;;;6183249;23;20032;-78
2023/05/06 08:24:09;;;;;;;18.52;11.27;;;;;;;;;;6180911;23;20340;-78
2023/05/06 08:26:35;;;;;;;18.65;11.63;;;;;;;;;;6182263;23;20459;-77
2023/05/06 08:29:02;;;;;;;14.82;10.65;;;;;;;;;;6185736;23;20060;-78
2023/05/06 08:31:27;;;;;;;16.42;11.18;;;;;;;;;;6183920;23;20016;-78
2023/05/06 08:33:52;;;;;;;17.52;10.18;;;;;;;;;;6184160;23;20005;-78
2023/05/06 08:36:18;;;;;;;18.58;10.25;;;;;;;;;;6184586;23;20005;-78
2023/05/06 08:38:49;;;;;;;17.88;10.32;;;;;;;;;;6184118;23;20012;-77
2023/05/06 08:41:16;;;;;;;17.55;10.55;;;;;;;;;;6183862;23;20448;-78
2023/05/06 08:43:42;;;;;;;15.43;10.20;;;;;;;;;;6209278;23;20012;-77
2023/05/06 08:46:08;;;;;;;15.32;10.50;;;;;;;;;;6181022;23;20343;-76
2023/05/06 08:48:33;;;;;;;15.50;9.90;;;;;;;;;;6181624;23;20151;-78
2023/05/06 08:51:02;;;;;;;16.95;10.35;;;;;;;;;;6178846;23;20005;-76
2023/05/06 08:53:28;;;;;;;16.65;11.40;;;;;;;;;;6178418;23;20420;-78
2023/05/06 08:55:55;;;;;;;15.18;9.52;;;;;;;;;;6183795;23;20001;-77
2023/05/06 08:58:23;;;;;;;15.50;10.02;;;;;;;;;;6184992;23;20063;-78
2023/05/06 09:00:50;;;;;;;15.70;9.73;;;;;;;;;;6183785;23;20427;-78
2023/05/06 09:03:15;;;;;;;16.20;9.65;;;;;;;;;;6181878;23;20072;-77
2023/05/06 09:05:41;;;;;;;15.25;9.30;;;;;;;;;;6182046;23;20416;-78
2023/05/06 09:08:06;;;;;;;16.50;9.45;;;;;;;;;;6183347;23;20012;-78
2023/05/06 09:10:36;;;;;;;14.50;9.35;;;;;;;;;;6184345;23;20011;-78
2023/05/06 09:13:02;;;;;;;15.45;8.98;;;;;;;;;;6182574;23;20009;-78
2023/05/06 09:15:38;;;;;;;13.30;8.45;;;;;;;;;;6182206;23;20012;-78
2023/05/06 09:18:05;;;;;;;13.32;7.75;;;;;;;;;;6183164;23;20415;-78
2023/05/06 09:20:32;;;;;;;13.60;8.68;;;;;;;;;;6183262;23;20069;-79
2023/05/06 09:22:59;;;;;;;12.27;7.03;;;;;;;;;;6182890;23;20015;-78
2023/05/06 09:25:24;;;;;;;12.50;7.78;;;;;;;;;;6182680;23;20094;-78
2023/05/06 09:28:01;;;;;;;12.07;7.53;;;;;;;;;;6183862;23;20005;-76
2023/05/06 09:30:27;;;;;;;10.88;6.40;;;;;;;;;;6182896;23;20084;-77
2023/05/06 09:32:52;;;;;;;10.02;5.18;;;;;;;;;;6181939;23;20740;-77
2023/05/06 09:35:17;;;;;;;8.95;5.18;;;;;;;;;;6182880;23;20001;-77
2023/05/06 09:37:43;;;;;;;9.73;5.72;;;;;;;;;;6179107;23;20009;-77
2023/05/06 09:40:09;;;;;;;9.43;6.03;;;;;;;;;;6183675;23;20005;-77
2023/05/06 09:42:35;;;;;;;10.10;6.60;;;;;;;;;;6183903;23;20505;-77
2023/05/06 09:45:00;;;;;;;11.73;5.70;;;;;;;;;;6181954;23;20009;-77
2023/05/06 09:47:31;;;;;;;10.27;6.47;;;;;;;;;;6167982;23;20064;-77
2023/05/06 09:50:00;;;;;;;9.50;5.57;;;;;;;;;;6176641;23;20015;-77
2023/05/06 09:52:28;;;;;;;8.93;5.72;;;;;;;;;;6175515;23;20071;-77
2023/05/06 09:54:55;;;;;;;9.48;5.38;;;;;;;;;;6173788;23;20461;-77
2023/05/06 09:57:23;;;;;;;7.72;5.18;;;;;;;;;;6176871;23;20040;-77
2023/05/06 09:59:51;;;;;;;9.15;5.22;;;;;;;;;;6176623;23;20039;-77
2023/05/06 10:02:17;;;;;;;8.90;5.80;;;;;;;;;;6179216;23;20043;-76
2023/05/06 10:04:44;;;;;;;8.00;4.35;;;;;;;;;;6178328;23;20435;-77
2023/05/06 10:07:11;;;;;;;6.15;2.97;;;;;;;;;;6176963;23;20016;-77
2023/05/06 10:09:39;;;;;;;7.70;4.43;;;;;;;;;;6178862;23;20079;-77
2023/05/06 10:12:08;;;;;;;6.78;3.40;;;;;;;;;;6175200;23;20017;-77
2023/05/06 10:14:37;;;;;;;6.13;3.40;;;;;;;;;;6195488;23;20213;-76
2023/05/06 10:17:08;;;;;;;4.45;2.30;;;;;;;;;;6177173;23;20009;-77
2023/05/06 10:19:35;;;;;;;10.35;4.60;;;;;;;;;;6175153;23;20356;-77
2023/05/06 10:22:09;;;;;;;6.13;4.28;;;;;;;;;;6179196;23;20099;-77
2023/05/06 10:24:50;;;;;;;7.30;5.20;;;;;;;;;;6175836;23;20019;-77
2023/05/06 10:27:20;;;;;;;9.23;5.75;;;;;;;;;;6202524;23;20012;-77
2023/05/06 10:29:47;;;;;;;7.43;5.28;;;;;;;;;;6175263;23;20009;-77
2023/05/06 10:32:13;;;;;;;7.45;4.68;;;;;;;;;;6176777;23;20064;-76
2023/05/06 10:34:46;;;;;;;6.70;4.10;;;;;;;;;;6174951;23;20005;-77
2023/05/06 10:37:13;;;;;;;7.78;4.40;;;;;;;;;;6175775;23;20032;-77
2023/05/06 10:39:39;;;;;;;6.53;4.30;;;;;;;;;;6176778;23;20092;-77
2023/05/06 10:42:05;;;;;;;6.43;4.20;;;;;;;;;;6180074;23;20013;-77
2023/05/06 10:44:58;;;;;;;7.70;4.45;;;;;;;;;;6178982;23;20012;-76
2023/05/06 10:47:24;;;;;;;6.72;3.83;;;;;;;;;;6178221;23;20443;-76
2023/05/06 10:50:21;;;;;;;5.18;3.30;;;;;;;;;;6177047;23;20059;-77
2023/05/06 10:52:49;;;;;;;6.53;3.55;;;;;;;;;;6177050;23;20462;-77
2023/05/06 10:55:26;;;;;;;5.63;3.67;;;;;;;;;;6183654;23;20024;-77
2023/05/06 10:57:58;;;;;;;5.10;3.05;;;;;;;;;;6180759;23;20463;-75
2023/05/06 11:00:24;;;;;;;;;;;;;;;;;;6180150;23;20432;-74
2023/05/06 11:02:54;;;;;;;6.55;4.20;;;;;;;;;;6179564;23;19940;-75
2023/05/06 11:05:19;;;;;;;7.05;3.50;;;;;;;;;;6182937;23;20012;-75
2023/05/06 11:07:49;;;;;;;6.80;4.00;;;;;;;;;;6181868;23;20431;-76
2023/05/06 11:10:29;;;;;;;6.03;3.20;;;;;;;;;;6180413;23;20035;-75
2023/05/06 11:12:55;;;;;;;5.32;3.42;;;;;;;;;;6206136;23;20009;-75
2023/05/06 11:15:36;;;;;;;4.80;2.40;;;;;;;;;;6182831;23;20012;-76
2023/05/06 11:18:24;;;;;;;3.42;1.83;;;;;;;;;;6178864;23;20336;-75
2023/05/06 11:20:50;;;;;;;5.45;2.45;;;;;;;;;;6178334;23;20019;-75
2023/05/06 11:23:17;;;;;;;3.72;2.20;;;;;;;;;;6202057;23;20063;-75
2023/05/06 11:25:45;;;;;;;5.95;2.53;;;;;;;;;;6179554;23;20423;-76
2023/05/06 11:28:13;;;;;;;5.65;2.35;;;;;;;;;;6175680;23;20444;-76
2023/05/06 11:30:41;;;;;;;4.43;2.50;;;;;;;;;;6180749;23;20363;-75
2023/05/06 11:33:08;;;;;;;5.13;2.50;;;;;;;;;;6182515;23;20005;-75
2023/05/06 11:35:35;;;;;;;6.30;2.70;;;;;;;;;;6179494;23;20032;-76
2023/05/06 11:38:00;;;;;;;4.72;2.72;;;;;;;;;;6176689;23;20451;-75
2023/05/06 11:40:28;;;;;;;5.88;2.75;;;;;;;;;;6178353;23;20009;-75
2023/05/06 11:42:53;;;;;;;7.30;2.65;;;;;;;;;;6176687;23;20013;-76
2023/05/06 11:45:19;;;;;;;3.72;2.45;;;;;;;;;;6178020;23;20078;-75
2023/05/06 11:47:44;;;;;;;4.68;2.92;;;;;;;;;;6180765;23;20438;-75
2023/05/06 11:50:10;;;;;;;4.72;2.60;;;;;;;;;;6179169;23;20088;-76
2023/05/06 11:52:35;;;;;;;4.30;2.25;;;;;;;;;;6178358;23;20092;-76
2023/05/06 11:55:01;;;;;;;3.67;1.90;;;;;;;;;;6180166;23;20023;-75
2023/05/06 11:57:26;;;;;;;6.15;2.13;;;;;;;;;;6179078;23;20009;-75
2023/05/06 11:59:54;;;;;;;5.50;2.20;;;;;;;;;;6179106;23;20011;-75
2023/05/06 12:02:20;;;;;;;4.45;1.98;;;;;;;;;;6179327;23;20005;-75
2023/05/06 12:04:48;;;;;;;4.63;2.30;;;;;;;;;;6182770;23;20055;-75
2023/05/06 12:07:15;;;;;;;3.75;2.05;;;;;;;;;;6183236;23;19997;-76
2023/05/06 12:09:46;;;;;;;5.78;1.80;;;;;;;;;;6181103;23;20135;-75
2023/05/06 12:12:16;;;;;;;4.40;2.40;;;;;;;;;;6181284;23;20391;-75
2023/05/06 12:14:42;;;;;;;3.25;1.67;;;;;;;;;;6181860;23;20032;-75
2023/05/06 12:17:08;;;;;;;5.03;2.00;;;;;;;;;;6181805;23;20012;-75
2023/05/06 12:19:34;;;;;;;4.18;1.63;;;;;;;;;;6182611;23;20001;-75
2023/05/06 12:22:17;;;;;;;4.70;2.28;;;;;;;;;;6181489;23;20005;-75
2023/05/06 12:24:44;;;;;;;3.95;1.60;;;;;;;;;;6182771;23;20033;-75
2023/05/06 12:27:09;;;;;;;3.08;1.60;;;;;;;;;;6184843;23;20029;-75
2023/05/06 12:29:35;;;;;;;2.60;1.33;;;;;;;;;;6182673;23;20378;-75
2023/05/06 12:32:10;;;;;;;5.07;1.60;;;;;;;;;;6182770;23;20001;-75
2023/05/06 12:34:39;;;;;;;3.88;1.80;;;;;;;;;;6183736;23;20084;-75
2023/05/06 12:37:05;;;;;;;2.92;1.58;;;;;;;;;;6182495;23;20442;-75
2023/05/06 12:39:38;;;;;;;3.72;1.70;;;;;;;;;;6181994;23;20761;-75
2023/05/06 12:42:04;;;;;;;2.70;1.38;;;;;;;;;;6184429;23;20051;-75
2023/05/06 12:44:39;;;;;;;3.53;1.38;;;;;;;;;;6183796;23;20503;-75
2023/05/06 12:47:06;;;;;;;5.18;1.40;;;;;;;;;;6182929;23;20411;-75
2023/05/06 12:49:48;;;;;;;3.20;1.60;;;;;;;;;;6181017;23;20067;-75
2023/05/06 12:52:15;;;;;;;3.75;1.80;;;;;;;;;;6181248;23;20008;-76
2023/05/06 12:54:40;;;;;;;6.03;1.50;;;;;;;;;;6206984;23;20001;-76
2023/05/06 12:57:06;;;;;;;3.53;1.48;;;;;;;;;;6178541;23;20009;-76
2023/05/06 12:59:32;;;;;;;3.97;1.42;;;;;;;;;;6180862;23;20085;-75
2023/05/06 13:01:58;;;;;;;3.92;1.60;;;;;;;;;;6181486;23;20092;-76
2023/05/06 13:04:24;;;;;;;4.10;1.70;;;;;;;;;;6184124;23;20004;-76
2023/05/06 13:06:52;;;;;;;4.60;1.77;;;;;;;;;;6182356;23;20505;-75
2023/05/06 13:09:18;;;;;;;3.50;1.63;;;;;;;;;;6177179;23;20454;-75
2023/05/06 13:11:43;;;;;;;3.95;1.48;;;;;;;;;;6181188;23;20116;-76
2023/05/06 13:14:09;;;;;;;3.45;1.55;;;;;;;;;;6181332;23;20005;-75
2023/05/06 13:16:35;;;;;;;3.08;1.40;;;;;;;;;;6180597;23;20013;-76
2023/05/06 13:19:02;;;;;;;2.88;1.92;;;;;;;;;;6183006;23;20063;-76
2023/05/06 13:21:27;;;;;;;3.38;1.40;;;;;;;;;;6182194;23;20096;-75
2023/05/06 13:23:53;;;;;;;3.13;1.50;;;;;;;;;;6182874;23;20393;-76
2023/05/06 13:26:18;;;;;;;2.55;1.40;;;;;;;;;;6180860;23;20408;-75
2023/05/06 13:28:43;;;;;;;3.45;1.52;;;;;;;;;;6178963;23;20004;-76
2023/05/06 13:31:09;;;;;;;2.67;1.33;;;;;;;;;;6206877;23;20101;-76
2023/05/06 13:33:34;;;;;;;5.40;1.52;;;;;;;;;;6182875;23;20347;-76
2023/05/06 13:36:00;;;;;;;2.40;1.20;;;;;;;;;;6180333;23;20004;-76
2023/05/06 13:38:25;;;;;;;3.58;1.60;;;;;;;;;;6180018;23;20080;-76
2023/05/06 13:40:52;;;;;;;2.65;1.27;;;;;;;;;;6181348;23;20008;-76
2023/05/06 13:43:18;;;;;;;2.75;1.20;;;;;;;;;;6183055;23;20005;-76
2023/05/06 13:45:44;;;;;;;4.63;1.65;;;;;;;;;;6182890;23;20009;-76
2023/05/06 13:48:10;;;;;;;4.90;1.40;;;;;;;;;;6182013;23;20492;-76
2023/05/06 13:50:36;;;;;;;3.42;1.50;;;;;;;;;;6180267;23;20329;-76
2023/05/06 13:53:02;;;;;;;4.38;1.40;;;;;;;;;;6182326;23;20008;-76
2023/05/06 13:55:27;;;;;;;3.42;1.60;;;;;;;;;;6181162;23;20479;-76
2023/05/06 13:57:52;;;;;;;3.47;1.70;;;;;;;;;;6180077;23;20023;-76
2023/05/06 14:00:18;;;;;;;3.70;1.63;;;;;;;;;;6181997;23;20079;-75
2023/05/06 14:02:43;;;;;;;3.63;1.65;;;;;;;;;;6178854;23;20382;-75
2023/05/06 14:05:09;;;;;;;4.80;1.40;;;;;;;;;;6183609;23;20084;-76
2023/05/06 14:07:35;;;;;;;2.63;1.10;;;;;;;;;;6182412;23;20009;-75
2023/05/06 14:10:00;;;;;;;6.57;1.92;;;;;;;;;;6180490;23;20012;-75
2023/05/06 14:12:26;;;;;;;3.75;1.40;;;;;;;;;;6181510;23;20106;-75
2023/05/06 14:14:51;;;;;;;3.33;1.80;;;;;;;;;;6180046;23;20075;-75
2023/05/06 14:17:16;;;;;;;2.38;1.40;;;;;;;;;;6182447;23;20368;-75
2023/05/06 14:19:42;;;;;;;4.35;1.65;;;;;;;;;;6183842;23;20332;-75
2023/05/06 14:22:07;;;;;;;3.58;1.48;;;;;;;;;;6182816;23;20428;-75
2023/05/06 14:24:32;;;;;;;5.85;1.52;;;;;;;;;;6202950;23;20066;-76
2023/05/06 14:26:57;;;;;;;3.55;1.67;;;;;;;;;;6182000;23;20071;-75
2023/05/06 14:29:23;;;;;;;5.47;1.60;;;;;;;;;;6182437;23;20074;-75
2023/05/06 14:31:48;;;;;;;3.15;1.50;;;;;;;;;;6181302;23;20071;-76
2023/05/06 14:34:13;;;;;;;3.63;1.50;;;;;;;;;;6183715;23;20005;-76
2023/05/06 14:36:39;;;;;;;2.13;1.40;;;;;;;;;;6182833;23;20431;-75